createdAt,value
2018-06-29T00:01:27.470Z,21.22
2018-06-29T00:03:57.176Z,21.21
2018-06-29T00:06:26.888Z,21.09
2018-06-29T00:08:58.282Z,21.12
2018-06-29T00:11:27.989Z,21.10
2018-06-29T00:13:57.754Z,21.11
2018-06-29T00:16:27.604Z,21.12
2018-06-29T00:18:57.361Z,21.07
2018-06-29T00:21:27.097Z,20.99
2018-06-29T00:23:57.014Z,20.96
2018-06-29T00:26:26.962Z,20.88
2018-06-29T00:28:57.374Z,20.88
2018-06-29T00:31:27.461Z,20.89
2018-06-29T00:33:57.223Z,20.88
2018-06-29T00:36:26.876Z,20.88
2018-06-29T00:38:56.873Z,20.78
2018-06-29T00:41:26.659Z,20.79
2018-06-29T00:43:56.465Z,20.76
2018-06-29T00:46:26.239Z,20.76
2018-06-29T00:48:56.696Z,20.73
2018-06-29T00:51:26.779Z,20.68
2018-06-29T00:53:56.570Z,20.63
2018-06-29T00:56:27.201Z,20.60
2018-06-29T00:58:56.861Z,20.60
2018-06-29T01:01:27.342Z,20.58
2018-06-29T01:03:56.997Z,20.60
2018-06-29T01:06:26.665Z,20.60
2018-06-29T01:08:57.309Z,20.57
2018-06-29T01:11:27.142Z,20.56
2018-06-29T01:13:57.738Z,20.57
2018-06-29T01:16:27.416Z,20.59
2018-06-29T01:18:57.049Z,20.56
2018-06-29T01:21:27.881Z,20.53
2018-06-29T01:23:58.295Z,20.55
2018-06-29T01:26:28.221Z,20.56
2018-06-29T01:28:58.148Z,20.55
2018-06-29T01:31:28.260Z,20.55
2018-06-29T01:33:59.391Z,20.51
2018-06-29T01:36:30.746Z,20.41
2018-06-29T01:39:00.429Z,20.30
2018-06-29T01:41:30.831Z,20.22
2018-06-29T01:44:00.395Z,20.28
2018-06-29T01:46:30.154Z,20.24
2018-06-29T01:48:59.992Z,20.19
2018-06-29T01:51:30.341Z,20.09
2018-06-29T01:54:01.758Z,19.98
2018-06-29T01:56:31.585Z,20.00
2018-06-29T01:59:01.718Z,19.94
2018-06-29T02:01:31.970Z,19.96
2018-06-29T02:04:02.053Z,19.93
2018-06-29T02:06:32.695Z,19.96
2018-06-29T02:09:02.392Z,19.94
2018-06-29T02:11:32.008Z,19.92
2018-06-29T02:14:01.743Z,19.95
2018-06-29T02:16:31.348Z,19.87
2018-06-29T02:25:51.196Z,19.71
2018-06-29T02:28:21.943Z,19.58
2018-06-29T02:30:51.723Z,19.55
2018-06-29T02:33:21.383Z,19.53
2018-06-29T02:35:51.465Z,19.42
2018-06-29T02:38:21.054Z,19.27
2018-06-29T02:40:50.851Z,19.10
2018-06-29T02:43:20.633Z,18.96
2018-06-29T02:45:51.527Z,18.94
2018-06-29T02:48:22.074Z,19.01
2018-06-29T02:50:51.696Z,19.04
2018-06-29T02:53:21.448Z,19.10
2018-06-29T02:55:51.844Z,19.12
2018-06-29T02:58:21.532Z,19.07
2018-06-29T03:00:52.029Z,19.00
2018-06-29T03:03:21.645Z,18.93
2018-06-29T03:05:51.274Z,18.93
2018-06-29T03:08:20.857Z,18.87
2018-06-29T03:10:50.612Z,18.86
2018-06-29T03:13:20.278Z,18.77
2018-06-29T03:15:50.147Z,18.70
2018-06-29T03:18:20.877Z,18.68
2018-06-29T03:20:50.478Z,18.62
2018-06-29T03:23:21.229Z,18.74
2018-06-29T03:25:51.464Z,18.68
2018-06-29T03:28:24.062Z,18.63
2018-06-29T03:30:54.799Z,18.62
2018-06-29T03:33:24.787Z,18.65
2018-06-29T03:35:54.470Z,18.78
2018-06-29T03:38:24.229Z,18.85
2018-06-29T03:40:53.900Z,18.83
2018-06-29T03:43:23.626Z,18.66
2018-06-29T03:45:53.297Z,18.62
2018-06-29T03:48:23.197Z,18.59
2018-06-29T03:50:52.783Z,18.60
2018-06-29T03:53:23.533Z,18.61
2018-06-29T03:55:53.936Z,18.62
2018-06-29T03:58:23.577Z,18.62
2018-06-29T04:00:53.213Z,18.63
2018-06-29T04:03:23.006Z,18.52
2018-06-29T04:05:53.112Z,18.52
2018-06-29T04:08:23.202Z,18.54
2018-06-29T04:10:52.775Z,18.60
2018-06-29T04:13:24.464Z,18.70
2018-06-29T04:15:54.120Z,18.67
2018-06-29T04:18:23.949Z,18.69
2018-06-29T04:20:53.664Z,18.64
2018-06-29T04:23:23.182Z,18.66
2018-06-29T04:25:52.975Z,18.75
2018-06-29T04:28:22.658Z,18.81
2018-06-29T04:30:52.433Z,18.73
2018-06-29T04:33:23.158Z,18.61
2018-06-29T04:35:52.943Z,18.61
2018-06-29T04:38:22.624Z,18.58
2018-06-29T04:40:53.081Z,18.50
2018-06-29T04:43:23.914Z,18.44
2018-06-29T04:45:53.708Z,18.39
2018-06-29T04:48:23.819Z,18.50
2018-06-29T04:50:53.505Z,18.54
2018-06-29T04:53:23.241Z,18.58
2018-06-29T04:55:53.661Z,18.57
2018-06-29T04:58:23.770Z,18.49
2018-06-29T05:00:54.528Z,18.52
2018-06-29T05:03:24.104Z,18.52
2018-06-29T05:05:54.033Z,18.49
2018-06-29T05:08:23.985Z,18.55
2018-06-29T05:10:53.642Z,18.58
2018-06-29T05:13:23.617Z,18.57
2018-06-29T05:15:53.697Z,18.55
2018-06-29T05:18:24.264Z,18.67
2018-06-29T05:20:55.713Z,18.69
2018-06-29T05:23:25.025Z,18.76
2018-06-29T05:25:55.236Z,18.87
2018-06-29T05:28:32.496Z,18.88
2018-06-29T05:31:02.966Z,18.91
2018-06-29T05:33:34.776Z,19.03
2018-06-29T05:36:05.669Z,19.08
2018-06-29T05:38:35.668Z,19.12
2018-06-29T05:41:05.615Z,19.10
2018-06-29T05:43:35.318Z,19.10
2018-06-29T05:46:06.973Z,19.18
2018-06-29T05:48:37.028Z,19.26
2018-06-29T05:51:07.590Z,19.30
2018-06-29T05:53:37.794Z,19.33
2018-06-29T05:56:08.668Z,19.32
2018-06-29T05:58:39.001Z,19.37
2018-06-29T06:01:11.777Z,19.36
2018-06-29T06:03:42.009Z,19.34
2018-06-29T06:06:12.044Z,19.34
2018-06-29T06:08:41.798Z,19.44
2018-06-29T06:11:11.652Z,19.54
2018-06-29T06:13:42.005Z,19.59
2018-06-29T06:16:12.161Z,19.60
2018-06-29T06:18:41.888Z,19.62
2018-06-29T06:21:12.592Z,19.62
2018-06-29T06:23:44.125Z,19.75
2018-06-29T06:26:13.903Z,19.76
2018-06-29T06:28:44.906Z,19.84
2018-06-29T06:31:14.641Z,19.92
2018-06-29T06:33:44.955Z,19.97
2018-06-29T06:36:14.892Z,20.05
2018-06-29T06:38:44.470Z,20.19
2018-06-29T06:41:14.206Z,20.24
2018-06-29T06:43:43.546Z,20.33
2018-06-29T06:46:13.235Z,20.34
2018-06-29T06:48:42.988Z,20.38
2018-06-29T06:51:12.754Z,20.40
2018-06-29T06:53:42.430Z,20.50
2018-06-29T06:56:12.756Z,20.62
2018-06-29T06:58:42.238Z,20.75
2018-06-29T07:01:12.017Z,20.83
2018-06-29T07:03:41.702Z,20.92
2018-06-29T07:06:13.068Z,20.99
2018-06-29T07:08:43.809Z,21.09
2018-06-29T07:11:13.659Z,21.20
2018-06-29T07:13:43.399Z,21.29
2018-06-29T07:16:13.314Z,21.36
2018-06-29T07:18:43.159Z,21.45
2018-06-29T07:21:12.915Z,21.49
2018-06-29T07:23:43.081Z,21.56
2018-06-29T07:26:13.825Z,21.67
2018-06-29T07:28:43.662Z,21.75
2018-06-29T07:31:13.463Z,21.85
2018-06-29T07:33:43.778Z,21.92
2018-06-29T07:36:13.588Z,21.96
2018-06-29T07:38:43.323Z,22.02
2018-06-29T07:41:13.545Z,22.12
2018-06-29T07:43:43.448Z,22.18
2018-06-29T07:46:13.214Z,22.25
2018-06-29T07:48:43.837Z,22.32
2018-06-29T07:51:13.867Z,22.41
2018-06-29T07:53:43.464Z,22.53
2018-06-29T07:56:13.258Z,22.64
2018-06-29T07:58:43.021Z,22.70
2018-06-29T08:01:14.562Z,22.73
2018-06-29T08:03:44.328Z,22.81
2018-06-29T08:06:14.344Z,22.94
2018-06-29T08:08:44.191Z,23.01
2018-06-29T08:11:13.828Z,23.09
2018-06-29T08:13:43.475Z,23.11
2018-06-29T08:16:13.100Z,23.22
2018-06-29T08:18:43.863Z,23.31
2018-06-29T08:21:14.117Z,23.41
2018-06-29T08:23:44.052Z,23.47
2018-06-29T08:26:25.976Z,23.52
2018-06-29T08:28:56.057Z,23.60
2018-06-29T08:31:25.727Z,23.67
2018-06-29T08:33:55.467Z,23.65
2018-06-29T08:36:25.188Z,23.65
2018-06-29T08:38:54.993Z,23.68
2018-06-29T08:41:25.444Z,23.72
2018-06-29T08:43:55.496Z,23.70
2018-06-29T08:46:25.303Z,23.73
2018-06-29T08:48:55.766Z,23.82
2018-06-29T08:51:26.048Z,23.85
2018-06-29T08:53:56.745Z,23.95
2018-06-29T08:56:26.482Z,24.09
2018-06-29T08:58:56.457Z,24.19
2018-06-29T09:01:26.165Z,24.31
2018-06-29T09:03:56.076Z,24.36
2018-06-29T09:06:25.681Z,24.33
2018-06-29T09:08:55.378Z,24.38
2018-06-29T09:11:24.999Z,24.49
2018-06-29T09:13:54.616Z,24.49
2018-06-29T09:16:24.361Z,24.48
2018-06-29T09:18:54.132Z,24.41
2018-06-29T09:21:23.787Z,24.49
2018-06-29T09:23:53.566Z,24.61
2018-06-29T09:26:23.496Z,24.66
2018-06-29T09:28:53.524Z,24.72
2018-06-29T09:31:23.996Z,24.81
2018-06-29T09:33:53.760Z,24.89
2018-06-29T09:36:23.602Z,24.93
2018-06-29T09:38:53.280Z,24.97
2018-06-29T09:41:26.344Z,25.06
2018-06-29T09:43:56.103Z,25.09
2018-06-29T09:46:26.093Z,25.13
2018-06-29T09:49:00.788Z,25.18
2018-06-29T09:51:34.583Z,25.25
2018-06-29T09:54:04.424Z,25.30
2018-06-29T09:56:34.679Z,25.44
2018-06-29T09:59:07.510Z,25.56
2018-06-29T10:01:37.311Z,25.63
2018-06-29T10:04:07.841Z,25.60
2018-06-29T10:06:38.575Z,25.67
2018-06-29T10:09:10.736Z,25.79
2018-06-29T10:11:40.953Z,25.87
2018-06-29T10:14:10.894Z,25.91
2018-06-29T10:16:42.087Z,25.87
2018-06-29T10:19:13.155Z,25.89
2018-06-29T10:21:43.799Z,25.93
2018-06-29T10:24:14.548Z,26.06
2018-06-29T10:26:44.283Z,26.15
2018-06-29T10:29:14.043Z,26.23
2018-06-29T10:31:43.940Z,26.23
2018-06-29T10:34:13.627Z,26.24
2018-06-29T10:36:44.339Z,26.32
2018-06-29T10:39:16.041Z,26.46
2018-06-29T10:41:45.816Z,26.46
2018-06-29T10:44:16.285Z,26.38
2018-06-29T10:46:46.001Z,26.51
2018-06-29T10:49:17.480Z,26.57
2018-06-29T10:51:47.626Z,26.66
2018-06-29T10:54:17.369Z,26.70
2018-06-29T10:56:47.992Z,26.77
2018-06-29T10:59:17.728Z,26.82
2018-06-29T11:01:47.731Z,26.89
2018-06-29T11:04:20.453Z,27.05
2018-06-29T11:06:50.219Z,27.18
2018-06-29T11:09:21.456Z,27.19
2018-06-29T11:11:51.996Z,27.30
2018-06-29T11:14:22.134Z,27.27
2018-06-29T11:16:51.924Z,27.23
2018-06-29T11:19:23.174Z,27.32
2018-06-29T11:21:54.931Z,27.43
2018-06-29T11:24:24.688Z,27.40
2018-06-29T11:26:54.544Z,27.40
2018-06-29T11:29:26.435Z,27.36
2018-06-29T11:31:56.196Z,27.31
2018-06-29T11:34:25.976Z,27.37
2018-06-29T11:36:55.699Z,27.34
2018-06-29T11:39:25.386Z,27.46
2018-06-29T11:41:56.014Z,27.50
2018-06-29T11:44:25.791Z,27.52
2018-06-29T11:46:56.341Z,27.57
2018-06-29T11:49:26.155Z,27.64
2018-06-29T11:51:55.886Z,27.81
2018-06-29T11:54:25.871Z,27.94
2018-06-29T11:56:55.564Z,28.05
2018-06-29T11:59:25.291Z,28.15
2018-06-29T12:01:54.912Z,28.19
2018-06-29T12:04:24.568Z,28.29
2018-06-29T12:06:55.116Z,28.42
2018-06-29T12:09:24.981Z,28.44
2018-06-29T12:11:55.281Z,28.51
2018-06-29T12:14:24.964Z,28.60
2018-06-29T12:16:54.644Z,28.60
2018-06-29T12:19:24.385Z,28.63
2018-06-29T12:21:54.120Z,28.64
2018-06-29T12:24:24.127Z,28.66
2018-06-29T12:26:54.431Z,28.55
2018-06-29T12:29:24.105Z,28.40
2018-06-29T12:31:54.794Z,28.46
2018-06-29T12:34:24.474Z,28.39
2018-06-29T12:36:55.727Z,28.32
2018-06-29T12:39:25.371Z,28.15
2018-06-29T12:41:55.156Z,28.06
2018-06-29T12:44:24.504Z,28.22
2018-06-29T12:46:54.362Z,28.49
2018-06-29T12:49:24.125Z,28.74
2018-06-29T12:51:54.816Z,29.00
2018-06-29T12:54:25.293Z,29.08
2018-06-29T12:56:55.019Z,29.23
2018-06-29T12:59:24.861Z,29.35
2018-06-29T13:01:55.021Z,29.57
2018-06-29T13:04:24.721Z,29.68
2018-06-29T13:06:54.331Z,29.81
2018-06-29T13:09:23.992Z,29.72
2018-06-29T13:11:53.822Z,29.74
2018-06-29T13:14:24.446Z,29.80
2018-06-29T13:16:54.191Z,29.76
2018-06-29T13:19:24.780Z,29.68
2018-06-29T13:21:54.441Z,29.67
2018-06-29T13:24:24.198Z,29.70
2018-06-29T13:26:55.214Z,29.70
2018-06-29T13:29:25.084Z,29.89
2018-06-29T13:31:54.513Z,30.00
2018-06-29T13:34:24.343Z,30.12
2018-06-29T13:36:54.284Z,30.25
2018-06-29T13:39:23.957Z,30.25
2018-06-29T13:41:53.693Z,30.25
2018-06-29T13:44:25.730Z,30.13
2018-06-29T13:46:55.534Z,30.20
2018-06-29T13:49:25.217Z,30.05
2018-06-29T13:51:54.889Z,30.07
2018-06-29T13:54:24.698Z,30.20
2018-06-29T13:56:54.332Z,30.36
2018-06-29T13:59:23.966Z,30.47
2018-06-29T14:01:53.879Z,30.52
2018-06-29T14:04:25.766Z,30.50
2018-06-29T14:06:55.420Z,30.61
2018-06-29T14:09:26.015Z,30.58
2018-06-29T14:11:55.665Z,30.53
2018-06-29T14:14:25.408Z,30.61
2018-06-29T14:16:55.361Z,30.58
2018-06-29T14:19:25.853Z,30.68
2018-06-29T14:21:56.011Z,30.79
2018-06-29T14:24:26.163Z,30.84
2018-06-29T14:26:55.938Z,30.76
2018-06-29T14:29:25.594Z,30.81
2018-06-29T14:31:55.265Z,30.68
2018-06-29T14:34:25.146Z,30.73
2018-06-29T14:36:55.660Z,30.74
2018-06-29T14:39:25.859Z,30.81
2018-06-29T14:41:55.522Z,30.89
2018-06-29T14:44:25.256Z,30.86
2018-06-29T14:46:55.067Z,31.00
2018-06-29T14:49:25.878Z,31.11
2018-06-29T14:51:55.736Z,31.31
2018-06-29T14:54:25.469Z,31.31
2018-06-29T14:56:55.179Z,31.38
2018-06-29T14:59:24.504Z,31.41
2018-06-29T15:01:54.429Z,31.52
2018-06-29T15:04:24.147Z,31.59
2018-06-29T15:06:54.585Z,31.54
2018-06-29T15:09:24.270Z,31.50
2018-06-29T15:11:54.069Z,31.49
2018-06-29T15:14:23.993Z,31.41
2018-06-29T15:16:53.705Z,31.37
2018-06-29T15:19:23.373Z,31.68
2018-06-29T15:21:53.266Z,32.12
2018-06-29T15:24:23.813Z,32.43
2018-06-29T15:26:53.566Z,32.73
2018-06-29T15:29:23.172Z,32.83
2018-06-29T15:31:53.714Z,32.68
2018-06-29T15:34:23.406Z,32.65
2018-06-29T15:36:53.120Z,32.36
2018-06-29T15:39:22.774Z,32.21
2018-06-29T15:41:53.360Z,32.29
2018-06-29T15:44:23.661Z,32.42
2018-06-29T15:46:56.609Z,32.48
2018-06-29T15:49:29.117Z,32.41
2018-06-29T15:51:59.919Z,32.50
2018-06-29T15:54:29.588Z,32.77
2018-06-29T15:57:01.345Z,32.83
2018-06-29T15:59:31.161Z,32.62
2018-06-29T16:02:01.011Z,32.38
2018-06-29T16:04:30.720Z,32.32
2018-06-29T16:07:00.437Z,32.17
2018-06-29T16:09:30.458Z,32.05
2018-06-29T16:12:01.383Z,32.18
2018-06-29T16:14:32.294Z,32.22
2018-06-29T16:17:03.434Z,32.33
2018-06-29T16:19:33.741Z,32.19
2018-06-29T16:22:03.547Z,32.26
2018-06-29T16:24:33.380Z,31.99
2018-06-29T16:27:03.088Z,31.56
2018-06-29T16:29:32.849Z,31.43
2018-06-29T16:32:02.553Z,31.10
2018-06-29T16:34:32.285Z,30.99
2018-06-29T16:37:01.959Z,30.67
2018-06-29T16:39:31.722Z,30.57
2018-06-29T16:42:01.876Z,30.46
2018-06-29T16:44:32.633Z,30.41
2018-06-29T16:47:05.081Z,30.42
2018-06-29T16:49:34.735Z,30.40
2018-06-29T16:52:04.436Z,30.27
2018-06-29T16:54:35.589Z,30.21
2018-06-29T16:57:06.263Z,30.29
2018-06-29T16:59:36.064Z,30.27
2018-06-29T17:02:06.422Z,30.08
2018-06-29T17:04:36.468Z,30.01
2018-06-29T17:07:06.449Z,30.02
2018-06-29T17:09:36.646Z,29.97
2018-06-29T17:12:06.876Z,29.90
2018-06-29T17:14:37.814Z,29.95
2018-06-29T17:17:07.534Z,29.96
2018-06-29T17:19:37.914Z,29.94
2018-06-29T17:22:08.481Z,29.93
2018-06-29T17:24:38.362Z,29.76
2018-06-29T17:27:11.673Z,29.78
2018-06-29T17:29:42.752Z,29.73
2018-06-29T17:32:13.322Z,29.71
2018-06-29T17:34:43.459Z,29.70
2018-06-29T17:37:15.831Z,29.62
2018-06-29T17:39:49.812Z,29.55
2018-06-29T17:42:23.671Z,29.41
2018-06-29T17:44:53.860Z,29.23
2018-06-29T17:47:24.249Z,29.10
2018-06-29T17:49:56.878Z,29.02
2018-06-29T17:52:28.041Z,28.84
2018-06-29T17:55:00.980Z,28.77
2018-06-29T17:57:36.065Z,28.71
2018-06-29T18:00:11.895Z,28.55
2018-06-29T18:02:44.520Z,28.42
2018-06-29T18:05:23.616Z,28.32
2018-06-29T18:07:56.511Z,28.26
2018-06-29T18:10:30.823Z,28.10
2018-06-29T18:13:04.359Z,28.04
2018-06-29T18:15:37.625Z,27.92
2018-06-29T18:18:09.629Z,27.77
2018-06-29T18:20:40.445Z,27.73
2018-06-29T18:23:10.897Z,27.66
2018-06-29T18:25:43.335Z,27.67
2018-06-29T18:28:14.420Z,27.73
2018-06-29T18:30:45.225Z,27.67
2018-06-29T18:33:17.296Z,27.65
2018-06-29T18:35:49.925Z,27.56
2018-06-29T18:38:20.091Z,27.50
2018-06-29T18:40:52.127Z,27.45
2018-06-29T18:43:23.278Z,27.45
2018-06-29T18:45:53.356Z,27.39
2018-06-29T18:48:24.913Z,27.34
2018-06-29T18:50:55.056Z,27.32
2018-06-29T18:53:25.133Z,27.28
2018-06-29T18:55:56.424Z,27.22
2018-06-29T18:58:28.052Z,27.17
2018-06-29T19:00:58.544Z,27.12
2018-06-29T19:03:28.177Z,27.08
2018-06-29T19:05:58.827Z,27.05
2018-06-29T19:08:29.228Z,27.01
2018-06-29T19:10:59.347Z,26.97
2018-06-29T19:13:30.407Z,26.92
2018-06-29T19:16:00.545Z,26.87
2018-06-29T19:18:30.611Z,26.83
2018-06-29T19:21:01.553Z,26.76
2018-06-29T19:23:32.072Z,26.72
2018-06-29T19:26:03.209Z,26.64
2018-06-29T19:28:34.880Z,26.58
2018-06-29T19:31:05.114Z,26.56
2018-06-29T19:33:35.623Z,26.49
2018-06-29T19:36:06.098Z,26.40
2018-06-29T19:38:36.174Z,26.33
2018-06-29T19:41:08.669Z,26.34
2018-06-29T19:43:38.829Z,26.33
2018-06-29T19:46:09.671Z,26.28
2018-06-29T19:48:40.761Z,26.20
2018-06-29T19:51:10.973Z,26.09
2018-06-29T19:53:43.042Z,26.00
2018-06-29T19:56:13.898Z,26.01
2018-06-29T19:58:43.757Z,26.00
2018-06-29T20:01:13.458Z,25.95
2018-06-29T20:03:43.316Z,25.89
2018-06-29T20:06:13.499Z,25.88
2018-06-29T20:08:43.547Z,25.85
2018-06-29T20:11:13.551Z,25.83
2018-06-29T20:13:43.515Z,25.80
2018-06-29T20:16:15.336Z,25.77
2018-06-29T20:18:46.977Z,25.69
2018-06-29T20:21:17.417Z,25.62
2018-06-29T20:23:48.226Z,25.52
2018-06-29T20:26:18.054Z,25.45
2018-06-29T20:28:47.952Z,25.38
2018-06-29T20:31:18.991Z,25.35
2018-06-29T20:33:50.843Z,25.30
2018-06-29T20:36:23.425Z,25.24
2018-06-29T20:38:53.956Z,25.20
2018-06-29T20:41:24.289Z,25.19
2018-06-29T20:43:54.188Z,25.16
2018-06-29T20:46:25.626Z,25.13
2018-06-29T20:48:55.695Z,25.04
2018-06-29T20:51:26.940Z,25.00
2018-06-29T20:53:58.729Z,24.90
2018-06-29T20:56:28.453Z,24.75
2018-06-29T20:58:59.518Z,24.71
2018-06-29T21:01:29.247Z,24.69
2018-06-29T21:03:59.039Z,24.64
2018-06-29T21:06:33.312Z,24.59
2018-06-29T21:09:05.827Z,24.57
2018-06-29T21:11:36.625Z,24.47
2018-06-29T21:14:09.690Z,24.49
2018-06-29T21:16:40.165Z,24.42
2018-06-29T21:19:12.043Z,24.39
2018-06-29T21:21:42.982Z,24.38
2018-06-29T21:24:15.788Z,24.37
2018-06-29T21:26:46.366Z,24.34
2018-06-29T21:29:20.045Z,24.26
2018-06-29T21:31:51.117Z,24.14
2018-06-29T21:34:21.121Z,24.09
2018-06-29T21:36:53.656Z,24.08
2018-06-29T21:39:24.477Z,24.09
2018-06-29T21:41:56.734Z,24.08
2018-06-29T21:44:27.391Z,24.10
2018-06-29T21:46:59.112Z,23.97
2018-06-29T21:49:29.817Z,23.91
2018-06-29T21:52:00.207Z,23.81
2018-06-29T21:54:34.567Z,23.82
2018-06-29T21:57:06.698Z,23.80
2018-06-29T21:59:38.590Z,23.72
2018-06-29T22:02:10.166Z,23.66
2018-06-29T22:04:40.316Z,23.60
2018-06-29T22:07:12.061Z,23.58
2018-06-29T22:09:44.175Z,23.55
2018-06-29T22:12:22.148Z,23.51
2018-06-29T22:14:52.284Z,23.53
2018-06-29T22:17:22.214Z,23.51
2018-06-29T22:19:52.654Z,23.45
2018-06-29T22:22:24.389Z,23.41
2018-06-29T22:24:56.081Z,23.38
2018-06-29T22:27:29.289Z,23.34
2018-06-29T22:29:59.520Z,23.28
2018-06-29T22:32:32.637Z,23.25
2018-06-29T22:35:03.123Z,23.17
2018-06-29T22:37:38.158Z,23.20
2018-06-29T22:40:09.328Z,23.15
2018-06-29T22:42:39.816Z,23.11
2018-06-29T22:45:09.984Z,23.10
2018-06-29T22:47:40.533Z,23.08
2018-06-29T22:50:11.904Z,23.03
2018-06-29T22:52:44.180Z,22.98
2018-06-29T22:55:15.597Z,22.97
2018-06-29T22:57:45.527Z,22.88
2018-06-29T23:00:17.308Z,22.79
2018-06-29T23:02:48.364Z,22.67
2018-06-29T23:05:19.652Z,22.69
2018-06-29T23:07:49.680Z,22.63
2018-06-29T23:10:26.082Z,22.58
2018-06-29T23:12:56.740Z,22.56
2018-06-29T23:15:27.302Z,22.54
2018-06-29T23:17:58.513Z,22.42
2018-06-29T23:20:29.861Z,22.36
2018-06-29T23:23:04.356Z,22.40
2018-06-29T23:25:35.240Z,22.37
2018-06-29T23:28:06.798Z,22.41
2018-06-29T23:30:37.504Z,22.44
2018-06-29T23:33:08.884Z,22.46
2018-06-29T23:35:38.944Z,22.48
2018-06-29T23:38:11.551Z,22.43
2018-06-29T23:40:44.245Z,22.26
2018-06-29T23:43:15.961Z,22.18
2018-06-29T23:45:48.896Z,22.16
2018-06-29T23:48:23.467Z,22.13
2018-06-29T23:50:54.202Z,22.12
2018-06-29T23:53:24.331Z,22.05
2018-06-29T23:55:56.522Z,21.96
2018-06-29T23:58:26.972Z,21.85
